createdAt,value
2019-04-30T00:00:40.679Z,15.8
2019-04-30T00:01:41.944Z,15.8
2019-04-30T00:02:44.981Z,15.8
2019-04-30T00:03:50.374Z,15.8
2019-04-30T00:04:59.238Z,15.8
2019-04-30T00:06:00.476Z,15.8
2019-04-30T00:07:01.718Z,15.8
2019-04-30T00:08:02.960Z,15.8
2019-04-30T00:09:05.354Z,15.8
2019-04-30T00:10:10.600Z,15.8
2019-04-30T00:11:15.824Z,15.8
2019-04-30T00:12:20.341Z,15.8
2019-04-30T00:13:21.583Z,15.8
2019-04-30T00:14:22.856Z,15.8
2019-04-30T00:15:28.043Z,15.8
2019-04-30T00:16:30.868Z,15.8
2019-04-30T00:17:39.433Z,15.8
2019-04-30T00:18:53.224Z,15.8
2019-04-30T00:20:01.820Z,15.8
2019-04-30T00:21:04.947Z,15.8
2019-04-30T00:22:10.775Z,15.8
2019-04-30T00:23:12.063Z,15.8
2019-04-30T00:24:13.327Z,15.8
2019-04-30T00:25:19.560Z,15.8
2019-04-30T00:26:27.703Z,15.8
2019-04-30T00:27:30.221Z,15.8
2019-04-30T00:28:31.652Z,15.8
2019-04-30T00:29:32.911Z,15.7
2019-04-30T00:30:35.010Z,15.7
2019-04-30T00:31:40.072Z,15.7
2019-04-30T00:32:45.415Z,15.8
2019-04-30T00:33:48.441Z,15.7
2019-04-30T00:34:55.589Z,15.7
2019-04-30T00:35:58.535Z,15.7
2019-04-30T00:37:02.170Z,15.7
2019-04-30T00:38:16.579Z,15.7
2019-04-30T00:39:17.842Z,15.7
2019-04-30T00:40:21.623Z,15.7
2019-04-30T00:41:30.294Z,15.7
2019-04-30T00:42:31.735Z,15.7
2019-04-30T00:43:32.967Z,15.7
2019-04-30T00:44:38.181Z,15.7
2019-04-30T00:45:39.866Z,15.7
2019-04-30T00:46:47.813Z,15.7
2019-04-30T00:47:49.213Z,15.7
2019-04-30T00:48:50.451Z,15.6
2019-04-30T00:49:52.036Z,15.6
2019-04-30T00:50:58.187Z,15.6
2019-04-30T00:51:59.983Z,15.6
2019-04-30T00:53:05.778Z,15.6
2019-04-30T00:54:15.202Z,15.6
2019-04-30T00:55:24.857Z,15.6
2019-04-30T00:56:28.126Z,15.6
2019-04-30T00:57:29.597Z,15.6
2019-04-30T00:58:30.841Z,15.6
2019-04-30T00:59:32.124Z,15.6
2019-04-30T01:00:33.358Z,15.6
2019-04-30T01:01:37.315Z,15.6
2019-04-30T01:02:48.986Z,15.6
2019-04-30T01:03:50.227Z,15.6
2019-04-30T01:04:51.477Z,15.6
2019-04-30T01:05:52.719Z,15.6
2019-04-30T01:06:59.972Z,15.6
2019-04-30T01:08:07.985Z,15.6
2019-04-30T01:09:09.229Z,15.6
2019-04-30T01:10:10.485Z,15.5
2019-04-30T01:11:11.724Z,15.5
2019-04-30T01:12:17.252Z,15.5
2019-04-30T01:13:24.439Z,15.5
2019-04-30T01:14:28.073Z,15.5
2019-04-30T01:15:32.807Z,15.5
2019-04-30T01:16:34.069Z,15.5
2019-04-30T01:17:35.317Z,15.5
2019-04-30T01:18:36.591Z,15.5
2019-04-30T01:19:39.684Z,15.5
2019-04-30T01:20:40.936Z,15.5
2019-04-30T01:21:46.812Z,15.5
2019-04-30T01:22:51.427Z,15.5
2019-04-30T01:23:54.640Z,15.5
2019-04-30T01:24:56.091Z,15.5
2019-04-30T01:25:58.541Z,15.4
2019-04-30T01:27:06.657Z,15.4
2019-04-30T01:28:11.213Z,15.4
2019-04-30T01:29:18.809Z,15.4
2019-04-30T01:30:22.652Z,15.4
2019-04-30T01:31:24.167Z,15.4
2019-04-30T01:32:25.383Z,15.4
2019-04-30T01:33:28.275Z,15.4
2019-04-30T01:34:36.387Z,15.4
2019-04-30T01:35:38.181Z,15.4
2019-04-30T01:36:43.399Z,15.4
2019-04-30T01:37:51.640Z,15.4
2019-04-30T01:38:52.886Z,15.4
2019-04-30T01:39:54.177Z,15.3
2019-04-30T01:40:55.421Z,15.3
2019-04-30T01:41:58.577Z,15.3
2019-04-30T01:43:03.746Z,15.3
2019-04-30T01:44:08.538Z,15.3
2019-04-30T01:45:12.805Z,15.3
2019-04-30T01:46:14.098Z,15.1
2019-04-30T01:47:15.465Z,15.3
2019-04-30T01:48:16.710Z,15.3
2019-04-30T01:49:20.231Z,15.3
2019-04-30T01:50:29.129Z,15.3
2019-04-30T01:51:34.447Z,15.2
2019-04-30T01:52:36.154Z,15.2
2019-04-30T01:53:43.568Z,15.2
2019-04-30T01:54:45.505Z,15.2
2019-04-30T01:55:46.759Z,15.2
2019-04-30T01:56:50.136Z,15.2
2019-04-30T01:57:51.407Z,15.2
2019-04-30T01:58:52.655Z,15.2
2019-04-30T01:59:53.894Z,15.2
2019-04-30T02:00:55.194Z,15.2
2019-04-30T02:01:56.478Z,15.2
2019-04-30T02:02:59.320Z,15.2
2019-04-30T02:04:00.573Z,15.2
2019-04-30T02:05:01.807Z,15.2
2019-04-30T02:06:03.078Z,15.2
2019-04-30T02:07:04.327Z,15.1
2019-04-30T02:08:05.570Z,15.2
2019-04-30T02:09:08.622Z,15.1
2019-04-30T02:10:10.310Z,15.1
2019-04-30T02:11:11.602Z,15.1
2019-04-30T02:12:12.870Z,15.1
2019-04-30T02:13:14.148Z,15.1
2019-04-30T02:14:15.524Z,15.1
2019-04-30T02:15:16.772Z,15.1
2019-04-30T02:16:21.066Z,15.1
2019-04-30T02:17:22.516Z,15.1
2019-04-30T02:18:23.752Z,15.1
2019-04-30T02:19:24.984Z,15.1
2019-04-30T02:20:26.218Z,15.1
2019-04-30T02:21:30.031Z,15
2019-04-30T02:22:34.240Z,15
2019-04-30T02:23:35.462Z,15
2019-04-30T02:24:38.608Z,15
2019-04-30T02:25:39.995Z,15
2019-04-30T02:26:41.316Z,15
2019-04-30T02:27:42.571Z,15
2019-04-30T02:28:43.821Z,15
2019-04-30T02:29:45.062Z,15
2019-04-30T02:30:46.328Z,15
2019-04-30T02:31:51.021Z,15
2019-04-30T02:32:52.463Z,15
2019-04-30T02:33:54.003Z,15
2019-04-30T02:34:55.258Z,15
2019-04-30T02:35:56.496Z,14.9
2019-04-30T02:37:04.261Z,15
2019-04-30T02:38:05.503Z,14.9
2019-04-30T02:39:06.745Z,14.9
2019-04-30T02:40:11.620Z,14.9
2019-04-30T02:41:12.867Z,14.9
2019-04-30T02:42:14.169Z,14.9
2019-04-30T02:43:15.426Z,14.9
2019-04-30T02:44:16.693Z,14.9
2019-04-30T02:45:20.263Z,14.9
2019-04-30T02:46:21.520Z,14.9
2019-04-30T02:47:22.807Z,14.9
2019-04-30T02:48:24.046Z,14.9
2019-04-30T02:49:25.274Z,14.9
2019-04-30T02:50:28.845Z,14.8
2019-04-30T02:51:30.560Z,14.9
2019-04-30T02:52:31.842Z,14.9
2019-04-30T02:53:33.090Z,14.9
2019-04-30T02:54:34.334Z,14.8
2019-04-30T02:55:35.570Z,14.8
2019-04-30T02:56:39.436Z,14.8
2019-04-30T02:57:41.700Z,14.8
2019-04-30T02:58:42.946Z,14.8
2019-04-30T02:59:44.174Z,14.8
2019-04-30T03:00:45.436Z,14.8
2019-04-30T03:01:49.497Z,14.8
2019-04-30T03:02:51.478Z,14.8
2019-04-30T03:03:52.718Z,14.8
2019-04-30T03:04:53.986Z,14.8
2019-04-30T03:05:55.234Z,14.8
2019-04-30T03:06:56.512Z,14.7
2019-04-30T03:08:00.575Z,14.7
2019-04-30T03:09:01.907Z,14.7
2019-04-30T03:10:03.170Z,14.7
2019-04-30T03:11:04.428Z,14.7
2019-04-30T03:12:05.668Z,14.7
2019-04-30T03:13:09.655Z,14.7
2019-04-30T03:14:11.207Z,14.7
2019-04-30T03:15:12.487Z,14.7
2019-04-30T03:16:13.719Z,14.7
2019-04-30T03:17:14.954Z,14.7
2019-04-30T03:18:16.244Z,14.7
2019-04-30T03:19:19.569Z,14.7
2019-04-30T03:20:32.428Z,14.7
2019-04-30T03:21:37.200Z,14.7
2019-04-30T03:22:41.193Z,14.7
2019-04-30T03:23:42.483Z,14.7
2019-04-30T03:24:44.024Z,14.7
2019-04-30T03:25:45.272Z,14.6
2019-04-30T03:26:46.518Z,14.6
2019-04-30T03:27:50.541Z,14.6
2019-04-30T03:28:51.922Z,14.7
2019-04-30T03:29:53.286Z,14.7
2019-04-30T03:30:57.394Z,14.6
2019-04-30T03:32:04.908Z,14.6
2019-04-30T03:33:06.178Z,14.6
2019-04-30T03:34:12.279Z,14.6
2019-04-30T03:35:25.418Z,14.6
2019-04-30T03:36:26.666Z,14.6
2019-04-30T03:37:29.360Z,14.6
2019-04-30T03:38:30.878Z,14.6
2019-04-30T03:39:33.738Z,14.6
2019-04-30T03:40:35.294Z,14.6
2019-04-30T03:41:36.540Z,14.6
2019-04-30T03:42:41.735Z,14.6
2019-04-30T03:43:42.982Z,14.6
2019-04-30T03:44:44.259Z,14.6
2019-04-30T03:45:45.535Z,14.6
2019-04-30T03:46:49.588Z,14.6
2019-04-30T03:47:51.133Z,14.6
2019-04-30T03:48:52.368Z,14.6
2019-04-30T03:49:53.638Z,14.6
2019-04-30T03:50:56.849Z,14.6
2019-04-30T03:52:01.684Z,14.6
2019-04-30T03:53:03.263Z,14.5
2019-04-30T03:54:04.533Z,14.6
2019-04-30T03:55:05.812Z,14.5
2019-04-30T03:56:09.935Z,14.5
2019-04-30T03:57:11.561Z,14.5
2019-04-30T03:58:12.823Z,14.5
2019-04-30T03:59:14.053Z,14.5
2019-04-30T04:00:15.577Z,14.5
2019-04-30T04:01:19.140Z,14.5
2019-04-30T04:02:21.042Z,14.5
2019-04-30T04:03:22.331Z,14.5
2019-04-30T04:04:23.596Z,14.5
2019-04-30T04:05:24.875Z,14.5
2019-04-30T04:06:30.538Z,14.5
2019-04-30T04:07:31.794Z,14.5
2019-04-30T04:08:33.027Z,14.5
2019-04-30T04:09:34.300Z,14.4
2019-04-30T04:10:35.595Z,14.4
2019-04-30T04:11:39.220Z,14.4
2019-04-30T04:12:40.956Z,14.5
2019-04-30T04:13:42.209Z,14.5
2019-04-30T04:14:44.080Z,14.5
2019-04-30T04:15:45.416Z,14.5
2019-04-30T04:16:51.102Z,14.4
2019-04-30T04:17:52.737Z,14.4
2019-04-30T04:18:54.023Z,14.4
2019-04-30T04:19:55.255Z,14.4
2019-04-30T04:21:08.539Z,14.4
2019-04-30T04:22:17.034Z,14.4
2019-04-30T04:23:21.138Z,14.4
2019-04-30T04:24:22.391Z,14.5
2019-04-30T04:25:23.661Z,14.5
2019-04-30T04:26:30.515Z,14.6
2019-04-30T04:27:31.773Z,14.6
2019-04-30T04:28:33.034Z,14.6
2019-04-30T04:29:34.279Z,14.6
2019-04-30T04:30:35.512Z,14.7
2019-04-30T04:31:39.128Z,14.7
2019-04-30T04:32:40.899Z,14.7
2019-04-30T04:33:42.179Z,14.7
2019-04-30T04:34:45.010Z,14.6
2019-04-30T04:35:46.438Z,14.6
2019-04-30T04:36:50.872Z,14.6
2019-04-30T04:37:52.279Z,14.6
2019-04-30T04:38:53.532Z,14.6
2019-04-30T04:39:54.795Z,14.6
2019-04-30T04:40:56.051Z,14.6
2019-04-30T04:41:59.365Z,14.6
2019-04-30T04:43:01.279Z,14.7
2019-04-30T04:44:02.557Z,14.7
2019-04-30T04:45:03.835Z,14.6
2019-04-30T04:46:05.083Z,14.6
2019-04-30T04:47:06.389Z,14.7
2019-04-30T04:48:12.449Z,14.7
2019-04-30T04:49:13.711Z,14.7
2019-04-30T04:50:14.978Z,14.7
2019-04-30T04:51:28.637Z,14.7
2019-04-30T04:52:39.673Z,14.7
2019-04-30T04:53:41.057Z,14.7
2019-04-30T04:54:42.309Z,14.8
2019-04-30T04:55:43.547Z,14.8
2019-04-30T04:56:44.805Z,14.8
2019-04-30T04:57:46.103Z,14.8
2019-04-30T04:58:50.763Z,14.9
2019-04-30T04:59:55.106Z,14.9
2019-04-30T05:00:58.734Z,14.9
2019-04-30T05:02:00.421Z,14.9
2019-04-30T05:03:01.819Z,14.9
2019-04-30T05:04:03.293Z,15
2019-04-30T05:05:04.650Z,15
2019-04-30T05:06:06.231Z,15
2019-04-30T05:07:09.027Z,15.1
2019-04-30T05:08:10.819Z,15.1
2019-04-30T05:09:12.071Z,15.2
2019-04-30T05:10:13.331Z,15.2
2019-04-30T05:11:14.622Z,15.2
2019-04-30T05:12:18.532Z,15.2
2019-04-30T05:13:20.017Z,15.3
2019-04-30T05:14:24.290Z,15.3
2019-04-30T05:15:30.656Z,15.3
2019-04-30T05:16:32.029Z,15.4
2019-04-30T05:17:33.290Z,15.4
2019-04-30T05:18:34.579Z,15.4
2019-04-30T05:19:38.171Z,15.4
2019-04-30T05:20:41.678Z,15.5
2019-04-30T05:21:46.615Z,15.5
2019-04-30T05:22:49.733Z,15.6
2019-04-30T05:23:51.112Z,15.6
2019-04-30T05:24:52.350Z,15.6
2019-04-30T05:25:53.609Z,15.7
2019-04-30T05:26:54.919Z,15.8
2019-04-30T05:27:56.170Z,15.8
2019-04-30T05:29:02.514Z,15.9
2019-04-30T05:30:03.751Z,15.9
2019-04-30T05:31:04.979Z,15.9
2019-04-30T05:32:06.230Z,16
2019-04-30T05:33:09.147Z,16.1
2019-04-30T05:34:10.447Z,16.1
2019-04-30T05:35:11.736Z,16.2
2019-04-30T05:36:13.289Z,16.2
2019-04-30T05:37:14.834Z,16.3
2019-04-30T05:38:16.095Z,16.3
2019-04-30T05:39:19.747Z,16.4
2019-04-30T05:40:21.383Z,16.4
2019-04-30T05:41:24.261Z,16.5
2019-04-30T05:42:25.566Z,16.5
2019-04-30T05:43:28.820Z,16.6
2019-04-30T05:44:30.279Z,16.6
2019-04-30T05:45:33.582Z,16.7
2019-04-30T05:46:35.072Z,16.8
2019-04-30T05:47:36.333Z,16.8
2019-04-30T05:48:39.735Z,16.9
2019-04-30T05:49:41.124Z,16.9
2019-04-30T05:50:42.368Z,17
2019-04-30T05:51:53.447Z,17.1
2019-04-30T05:52:56.769Z,17.1
2019-04-30T05:53:59.815Z,17.2
2019-04-30T05:55:01.142Z,17.2
2019-04-30T05:56:03.270Z,17.3
2019-04-30T05:57:04.735Z,17.4
2019-04-30T05:58:06.009Z,17.4
2019-04-30T05:59:08.958Z,17.5
2019-04-30T06:00:11.319Z,17.5
2019-04-30T06:01:12.586Z,17.6
2019-04-30T06:02:13.829Z,17.6
2019-04-30T06:03:25.097Z,17.7
2019-04-30T06:04:33.498Z,17.7
2019-04-30T06:05:34.778Z,17.8
2019-04-30T06:06:36.026Z,17.8
2019-04-30T06:07:38.965Z,17.8
2019-04-30T06:08:40.750Z,17.9
2019-04-30T06:09:41.994Z,17.9
2019-04-30T06:10:43.288Z,18
2019-04-30T06:11:44.566Z,18.1
2019-04-30T06:12:45.816Z,18.1
2019-04-30T06:13:52.068Z,18.2
2019-04-30T06:14:53.344Z,18.2
2019-04-30T06:15:54.641Z,18.3
2019-04-30T06:16:55.929Z,18.3
2019-04-30T06:18:01.027Z,18.4
2019-04-30T06:19:13.532Z,18.3
2019-04-30T06:20:18.192Z,18.6
2019-04-30T06:21:24.983Z,18.6
2019-04-30T06:22:26.232Z,18.7
2019-04-30T06:23:29.519Z,18.8
2019-04-30T06:24:33.616Z,18.8
2019-04-30T06:25:52.673Z,18.9
2019-04-30T06:27:00.298Z,19
2019-04-30T06:28:01.560Z,19.1
2019-04-30T06:29:02.831Z,19.1
2019-04-30T06:30:06.488Z,19.2
2019-04-30T06:31:09.093Z,19.3
2019-04-30T06:32:10.510Z,19.3
2019-04-30T06:33:11.902Z,19.4
2019-04-30T06:34:13.233Z,19.5
2019-04-30T06:35:14.500Z,19.5
2019-04-30T06:36:16.112Z,19.6
2019-04-30T06:37:19.866Z,19.6
2019-04-30T06:38:21.137Z,19.7
2019-04-30T06:39:22.414Z,19.8
2019-04-30T06:40:23.785Z,19.8
2019-04-30T06:41:25.318Z,19.9
2019-04-30T06:42:26.620Z,20
2019-04-30T06:43:29.982Z,20
2019-04-30T06:44:37.301Z,20.1
2019-04-30T06:45:42.478Z,20.2
2019-04-30T06:46:43.982Z,20.2
2019-04-30T06:47:45.280Z,20.3
2019-04-30T06:48:49.056Z,20.3
2019-04-30T06:49:51.827Z,20.4
2019-04-30T06:50:53.147Z,20.5
2019-04-30T06:51:58.792Z,20.4
2019-04-30T06:53:01.559Z,20.6
2019-04-30T06:54:05.676Z,20.6
2019-04-30T06:55:09.272Z,20.7
2019-04-30T06:56:10.648Z,20.8
2019-04-30T06:57:12.234Z,20.8
2019-04-30T06:58:15.400Z,20.9
2019-04-30T06:59:16.963Z,20.9
2019-04-30T07:00:19.567Z,21
2019-04-30T07:01:33.901Z,21.1
2019-04-30T07:02:39.347Z,21.1
2019-04-30T07:03:52.616Z,21.2
2019-04-30T07:04:58.326Z,21.2
2019-04-30T07:06:05.246Z,21.3
2019-04-30T07:07:09.763Z,21.4
2019-04-30T07:08:15.090Z,21.4
2019-04-30T07:09:26.644Z,21.5
2019-04-30T07:10:34.820Z,21.6
2019-04-30T07:11:53.722Z,21.6
2019-04-30T07:13:03.636Z,21.7
2019-04-30T07:14:14.371Z,21.7
2019-04-30T07:15:17.276Z,21.8
2019-04-30T07:16:29.889Z,21.9
2019-04-30T07:17:36.378Z,21.9
2019-04-30T07:18:41.226Z,22
2019-04-30T07:19:54.058Z,22
2019-04-30T07:21:00.453Z,22.1
2019-04-30T07:22:11.441Z,22.2
2019-04-30T07:23:15.441Z,22.2
2019-04-30T07:24:21.025Z,22.3
2019-04-30T07:25:28.932Z,22.3
2019-04-30T07:26:33.821Z,22.4
2019-04-30T07:27:50.451Z,22.4
2019-04-30T07:28:54.694Z,22.5
2019-04-30T07:29:56.573Z,22.5
2019-04-30T07:31:08.477Z,22.6
2019-04-30T07:32:15.511Z,22.6
2019-04-30T07:33:16.803Z,22.6
2019-04-30T07:34:21.481Z,22.6
2019-04-30T07:35:25.307Z,22.7
2019-04-30T07:36:43.033Z,22.8
2019-04-30T07:37:54.233Z,22.8
2019-04-30T07:39:04.465Z,22.9
2019-04-30T07:40:05.725Z,22.9
2019-04-30T07:41:08.935Z,22.9
2019-04-30T07:42:10.738Z,23
2019-04-30T07:43:12.031Z,23.1
2019-04-30T07:44:29.396Z,23.1
2019-04-30T07:45:39.729Z,23.1
2019-04-30T07:46:45.168Z,23.2
2019-04-30T07:47:46.751Z,23.2
2019-04-30T07:48:50.256Z,23.3
2019-04-30T07:49:55.855Z,23.3
2019-04-30T07:50:59.185Z,23.3
2019-04-30T07:52:01.541Z,23.3
2019-04-30T07:53:06.262Z,23.4
2019-04-30T07:54:11.564Z,23.4
2019-04-30T07:55:12.817Z,23.4
2019-04-30T07:56:25.117Z,23.5
2019-04-30T07:57:40.308Z,23.5
2019-04-30T07:58:42.216Z,23.5
2019-04-30T07:59:43.531Z,23.6
2019-04-30T08:00:46.298Z,23.6
2019-04-30T08:02:03.925Z,23.7
2019-04-30T08:03:15.173Z,23.7
2019-04-30T08:04:32.434Z,23.7
2019-04-30T08:05:33.733Z,23.7
2019-04-30T08:06:34.992Z,23.8
2019-04-30T08:07:36.532Z,23.8
2019-04-30T08:08:40.821Z,23.9
2019-04-30T08:09:42.448Z,23.9
2019-04-30T08:10:44.058Z,24
2019-04-30T08:11:45.332Z,24
2019-04-30T08:12:46.893Z,23.9
2019-04-30T08:13:52.191Z,24.1
2019-04-30T08:14:56.271Z,24.1
2019-04-30T08:16:00.203Z,24.1
2019-04-30T08:17:01.492Z,24.1
2019-04-30T08:18:05.579Z,24.2
2019-04-30T08:19:09.335Z,24.2
2019-04-30T08:20:16.630Z,24.2
2019-04-30T08:21:18.959Z,24.2
2019-04-30T08:22:23.309Z,24.3
2019-04-30T08:23:34.532Z,24.3
2019-04-30T08:24:40.526Z,24.3
2019-04-30T08:25:41.801Z,24.4
2019-04-30T08:26:43.325Z,24.4
2019-04-30T08:27:46.694Z,24.4
2019-04-30T08:28:49.842Z,24.4
2019-04-30T08:29:51.348Z,24.4
2019-04-30T08:30:52.603Z,24.5
2019-04-30T08:31:53.926Z,24.4
2019-04-30T08:32:55.194Z,24.5
2019-04-30T08:33:56.451Z,24.5
2019-04-30T08:35:02.872Z,24.6
2019-04-30T08:36:04.138Z,24.6
2019-04-30T08:37:13.527Z,24.6
2019-04-30T08:38:20.747Z,24.6
2019-04-30T08:39:22.327Z,24.6
2019-04-30T08:40:23.620Z,24.7
2019-04-30T08:41:25.161Z,24.7
2019-04-30T08:42:31.539Z,24.7
2019-04-30T08:43:39.386Z,24.8
2019-04-30T08:44:41.033Z,24.8
2019-04-30T08:45:42.306Z,24.8
2019-04-30T08:46:44.312Z,24.9
2019-04-30T08:47:46.099Z,24.9
2019-04-30T08:48:51.383Z,24.8
2019-04-30T08:49:54.648Z,24.7
2019-04-30T08:50:55.942Z,24.9
2019-04-30T08:51:58.669Z,24.9
2019-04-30T08:53:00.390Z,24.9
2019-04-30T08:54:02.196Z,24.9
2019-04-30T08:55:13.209Z,25
2019-04-30T08:56:19.573Z,24.8
2019-04-30T08:57:23.152Z,24.9
2019-04-30T08:58:24.426Z,24.9
2019-04-30T08:59:33.122Z,24.9
2019-04-30T09:00:35.926Z,24.9
2019-04-30T09:01:39.238Z,24.9
2019-04-30T09:02:40.506Z,24.9
2019-04-30T09:03:42.100Z,24.9
2019-04-30T09:04:43.666Z,24.9
2019-04-30T09:05:49.886Z,24.9
2019-04-30T09:06:53.719Z,24.9
2019-04-30T09:07:55.344Z,24.9
2019-04-30T09:08:59.144Z,24.9
2019-04-30T09:10:04.755Z,24.9
2019-04-30T09:11:19.693Z,24.9
2019-04-30T09:12:34.236Z,24.9
2019-04-30T09:13:38.781Z,24.9
2019-04-30T09:14:40.589Z,24.9
2019-04-30T09:15:44.202Z,24.9
2019-04-30T09:16:45.570Z,24.9
2019-04-30T09:17:58.758Z,24.9
2019-04-30T09:19:06.998Z,24.9
2019-04-30T09:20:13.600Z,24.9
2019-04-30T09:21:18.620Z,24.9
2019-04-30T09:22:25.601Z,24.9
2019-04-30T09:23:42.568Z,25
2019-04-30T09:24:52.624Z,25.1
2019-04-30T09:25:54.978Z,25
2019-04-30T09:26:56.235Z,25
2019-04-30T09:27:59.691Z,25.1
2019-04-30T09:29:01.300Z,25.1
2019-04-30T09:30:02.577Z,25.1
2019-04-30T09:31:03.884Z,25.1
2019-04-30T09:32:05.177Z,25.2
2019-04-30T09:33:06.464Z,25.3
2019-04-30T09:34:15.017Z,25.2
2019-04-30T09:35:21.014Z,25.1
2019-04-30T09:36:22.381Z,25.1
2019-04-30T09:37:23.642Z,25.1
2019-04-30T09:38:24.915Z,25.1
2019-04-30T09:39:26.173Z,25.1
2019-04-30T09:40:28.699Z,25
2019-04-30T09:41:33.276Z,25.1
2019-04-30T09:42:34.566Z,25.1
2019-04-30T09:43:35.843Z,25
2019-04-30T09:44:38.621Z,25
2019-04-30T09:45:40.638Z,25
2019-04-30T09:46:41.978Z,25
2019-04-30T09:47:43.302Z,25
2019-04-30T09:48:44.607Z,25
2019-04-30T09:49:45.872Z,25
2019-04-30T09:50:49.028Z,25
2019-04-30T09:51:51.583Z,25
2019-04-30T09:52:53.423Z,25
2019-04-30T09:53:58.406Z,25
2019-04-30T09:55:03.995Z,24.9
2019-04-30T09:56:05.447Z,24.9
2019-04-30T09:57:08.720Z,24.9
2019-04-30T09:58:16.813Z,24.8
2019-04-30T09:59:29.287Z,24.9
2019-04-30T10:00:30.637Z,25
2019-04-30T10:01:33.400Z,25
2019-04-30T10:02:35.019Z,25
2019-04-30T10:03:36.869Z,25
2019-04-30T10:04:46.663Z,24.9
2019-04-30T10:05:49.299Z,24.9
2019-04-30T10:06:50.803Z,24.9
2019-04-30T10:07:54.322Z,24.9
2019-04-30T10:08:56.931Z,24.9
2019-04-30T10:10:00.266Z,24.9
2019-04-30T10:11:01.551Z,24.9
2019-04-30T10:12:02.929Z,25
2019-04-30T10:13:10.378Z,25
2019-04-30T10:14:11.668Z,24.9
2019-04-30T10:15:13.172Z,24.9
2019-04-30T10:16:19.090Z,24.9
2019-04-30T10:17:20.845Z,24.9
2019-04-30T10:18:22.191Z,24.9
2019-04-30T10:19:23.491Z,24.8
2019-04-30T10:20:24.795Z,24.8
2019-04-30T10:21:30.938Z,24.8
2019-04-30T10:22:32.237Z,24.8
2019-04-30T10:23:33.537Z,24.8
2019-04-30T10:24:34.814Z,24.8
2019-04-30T10:25:36.103Z,24.7
2019-04-30T10:26:37.613Z,24.8
2019-04-30T10:27:38.971Z,24.8
2019-04-30T10:28:41.748Z,24.8
2019-04-30T10:29:49.192Z,24.8
2019-04-30T10:30:50.699Z,24.8
2019-04-30T10:31:52.327Z,24.8
2019-04-30T10:32:53.798Z,24.8
2019-04-30T10:33:55.281Z,24.8
2019-04-30T10:34:57.701Z,24.8
2019-04-30T10:35:59.502Z,24.8
2019-04-30T10:37:02.879Z,24.8
2019-04-30T10:38:04.327Z,24.7
2019-04-30T10:39:05.915Z,24.7
2019-04-30T10:40:07.222Z,24.7
2019-04-30T10:41:13.972Z,24.7
2019-04-30T10:42:15.273Z,24.7
2019-04-30T10:43:17.215Z,24.7
2019-04-30T10:44:20.481Z,24.7
2019-04-30T10:45:21.765Z,24.7
2019-04-30T10:46:23.323Z,24.7
2019-04-30T10:47:29.187Z,24.7
2019-04-30T10:48:33.410Z,24.7
2019-04-30T10:49:35.236Z,24.7
2019-04-30T10:50:40.895Z,24.8
2019-04-30T10:51:42.373Z,24.8
2019-04-30T10:52:43.611Z,24.7
2019-04-30T10:53:44.891Z,24.7
2019-04-30T10:54:51.765Z,24.8
2019-04-30T10:55:55.253Z,24.8
2019-04-30T10:56:59.085Z,24.7
2019-04-30T10:58:00.509Z,24.7
2019-04-30T10:59:03.149Z,24.7
2019-04-30T11:00:04.479Z,24.7
2019-04-30T11:01:10.206Z,24.7
2019-04-30T11:02:17.692Z,24.7
2019-04-30T11:03:22.236Z,24.6
2019-04-30T11:04:25.794Z,24.6
2019-04-30T11:05:29.194Z,24.6
2019-04-30T11:06:32.859Z,24.6
2019-04-30T11:07:34.116Z,24.6
2019-04-30T11:08:36.811Z,24.6
2019-04-30T11:09:39.311Z,24.6
2019-04-30T11:10:40.781Z,24.6
2019-04-30T11:11:49.203Z,24.6
2019-04-30T11:12:52.005Z,24.6
2019-04-30T11:13:55.354Z,24.5
2019-04-30T11:14:56.645Z,24.5
2019-04-30T11:16:02.598Z,24.5
2019-04-30T11:17:16.326Z,24.5
2019-04-30T11:18:24.777Z,24.5
2019-04-30T11:19:26.604Z,24.5
2019-04-30T11:20:31.057Z,24.5
2019-04-30T11:21:33.049Z,24.5
2019-04-30T11:22:34.765Z,24.5
2019-04-30T11:23:36.654Z,24.4
2019-04-30T11:24:53.770Z,24.4
2019-04-30T11:26:03.647Z,24.4
2019-04-30T11:27:06.233Z,24.4
2019-04-30T11:28:08.587Z,24.4
2019-04-30T11:29:11.914Z,24.4
2019-04-30T11:30:21.136Z,24.3
2019-04-30T11:31:25.469Z,24.3
2019-04-30T11:32:27.603Z,24.3
2019-04-30T11:33:31.390Z,24.3
2019-04-30T11:34:33.119Z,24.3
2019-04-30T11:35:34.391Z,24.3
2019-04-30T11:36:38.591Z,24.3
2019-04-30T11:37:40.355Z,24.3
2019-04-30T11:38:41.639Z,24.3
2019-04-30T11:39:45.494Z,24.2
2019-04-30T11:40:48.496Z,24.2
2019-04-30T11:41:50.001Z,24.2
2019-04-30T11:42:51.358Z,24.2
2019-04-30T11:43:52.627Z,24.2
2019-04-30T11:44:55.197Z,24.2
2019-04-30T11:45:58.475Z,24.1
2019-04-30T11:47:01.967Z,24.1
2019-04-30T11:48:03.336Z,24.1
2019-04-30T11:49:04.607Z,24.1
2019-04-30T11:50:06.179Z,24.1
2019-04-30T11:51:09.260Z,24.1
2019-04-30T11:52:10.755Z,24.1
2019-04-30T11:53:25.155Z,24.1
2019-04-30T11:54:32.713Z,24.1
2019-04-30T11:55:35.054Z,24.1
2019-04-30T11:56:38.335Z,24.1
2019-04-30T11:57:39.897Z,24.1
2019-04-30T11:58:41.403Z,24.1
2019-04-30T11:59:50.343Z,24.1
2019-04-30T12:00:52.607Z,24.1
2019-04-30T12:01:53.866Z,24
2019-04-30T12:02:55.160Z,24
2019-04-30T12:03:56.443Z,24
2019-04-30T12:04:58.977Z,24
2019-04-30T12:06:02.950Z,24
2019-04-30T12:07:04.306Z,24
2019-04-30T12:08:05.603Z,23.9
2019-04-30T12:09:08.978Z,23.9
2019-04-30T12:10:10.444Z,23.9
2019-04-30T12:11:11.730Z,23.9
2019-04-30T12:12:16.205Z,23.9
2019-04-30T12:13:19.667Z,23.9
2019-04-30T12:14:21.689Z,23.8
2019-04-30T12:15:22.938Z,23.8
2019-04-30T12:16:28.505Z,23.8
2019-04-30T12:17:30.262Z,23.8
2019-04-30T12:18:31.735Z,23.8
2019-04-30T12:19:35.436Z,23.8
2019-04-30T12:20:39.664Z,23.8
2019-04-30T12:21:40.942Z,23.8
2019-04-30T12:22:42.223Z,23.7
2019-04-30T12:23:43.529Z,23.8
2019-04-30T12:24:45.074Z,23.7
2019-04-30T12:25:46.376Z,23.7
2019-04-30T12:26:49.945Z,23.7
2019-04-30T12:27:51.229Z,23.7
2019-04-30T12:28:52.559Z,23.7
2019-04-30T12:29:53.919Z,23.7
2019-04-30T12:30:55.206Z,23.7
2019-04-30T12:31:59.598Z,23.5
2019-04-30T12:33:03.048Z,23.7
2019-04-30T12:34:04.327Z,23.7
2019-04-30T12:35:06.912Z,23.7
2019-04-30T12:36:09.001Z,23.7
2019-04-30T12:37:10.787Z,23.6
2019-04-30T12:38:12.394Z,23.6
2019-04-30T12:39:13.635Z,23.6
2019-04-30T12:40:26.518Z,23.6
2019-04-30T12:41:35.170Z,23.6
2019-04-30T12:42:39.648Z,23.6
2019-04-30T12:43:40.926Z,23.6
2019-04-30T12:44:44.224Z,23.6
2019-04-30T12:45:45.573Z,23.6
2019-04-30T12:46:48.605Z,23.6
2019-04-30T12:47:49.998Z,23.6
2019-04-30T12:48:51.276Z,23.6
2019-04-30T12:49:52.556Z,23.6
2019-04-30T12:50:54.012Z,23.6
2019-04-30T12:51:55.299Z,23.5
2019-04-30T12:52:56.708Z,23.5
2019-04-30T12:54:00.068Z,23.5
2019-04-30T12:55:15.366Z,23.5
2019-04-30T12:56:17.500Z,23.5
2019-04-30T12:57:29.458Z,23.5
2019-04-30T12:58:30.850Z,23.5
2019-04-30T12:59:32.332Z,23.5
2019-04-30T13:00:34.819Z,23.5
2019-04-30T13:01:36.145Z,23.5
2019-04-30T13:02:38.845Z,23.5
2019-04-30T13:03:42.963Z,23.5
2019-04-30T13:05:00.111Z,23.5
2019-04-30T13:06:02.415Z,23.5
2019-04-30T13:07:05.429Z,23.5
2019-04-30T13:08:09.577Z,23.4
2019-04-30T13:09:12.798Z,23.4
2019-04-30T13:10:15.437Z,23.4
2019-04-30T13:11:20.403Z,23.4
2019-04-30T13:12:23.671Z,23.4
2019-04-30T13:13:26.347Z,23.4
2019-04-30T13:14:33.535Z,23.4
2019-04-30T13:15:51.250Z,23.4
2019-04-30T13:16:52.499Z,23.4
2019-04-30T13:17:53.824Z,23.4
2019-04-30T13:18:55.134Z,23.4
2019-04-30T13:19:56.435Z,23.4
2019-04-30T13:20:58.829Z,23.3
2019-04-30T13:22:01.214Z,23.4
2019-04-30T13:23:04.397Z,23.3
2019-04-30T13:24:05.709Z,23.3
2019-04-30T13:25:09.436Z,23.3
2019-04-30T13:26:11.314Z,23.3
2019-04-30T13:27:14.907Z,23.3
2019-04-30T13:28:16.202Z,23.3
2019-04-30T13:29:17.618Z,23.3
2019-04-30T13:30:20.515Z,23.3
2019-04-30T13:31:22.308Z,23.3
2019-04-30T13:32:29.984Z,23.3
2019-04-30T13:33:33.629Z,23.3
2019-04-30T13:34:34.954Z,23.3
2019-04-30T13:35:45.546Z,23.3
2019-04-30T13:36:46.830Z,23.3
2019-04-30T13:38:02.475Z,23.2
2019-04-30T13:39:03.828Z,23.2
2019-04-30T13:40:05.088Z,23.2
2019-04-30T13:41:06.615Z,23.2
2019-04-30T13:43:18.873Z,23.2
2019-04-30T13:44:20.200Z,23.2
2019-04-30T13:45:21.814Z,23.2
2019-04-30T13:46:23.323Z,23.2
2019-04-30T13:47:24.657Z,23.2
2019-04-30T13:48:25.950Z,23.2
2019-04-30T13:49:30.215Z,23.2
2019-04-30T13:50:31.656Z,23.2
2019-04-30T13:51:33.280Z,23.2
2019-04-30T13:52:38.868Z,23.2
2019-04-30T13:53:40.606Z,23.2
2019-04-30T13:54:42.028Z,23.2
2019-04-30T13:55:45.855Z,23.2
2019-04-30T13:56:49.488Z,23.2
2019-04-30T13:57:50.765Z,23.1
2019-04-30T13:58:52.087Z,23.2
2019-04-30T13:59:53.392Z,23.1
2019-04-30T14:00:54.696Z,23.1
2019-04-30T14:01:58.793Z,23.1
2019-04-30T14:03:00.840Z,23.1
2019-04-30T14:04:02.352Z,23.1
2019-04-30T14:05:03.667Z,23.1
2019-04-30T14:06:05.203Z,23.1
2019-04-30T14:07:09.760Z,23.1
2019-04-30T14:08:11.389Z,23.1
2019-04-30T14:09:12.648Z,23.1
2019-04-30T14:10:14.356Z,23.1